TimeCST,TemperatureF,Dew PointF,Humidity,Sea Level PressureIn,VisibilityMPH,Wind Direction,Wind SpeedMPH,Gust SpeedMPH,PrecipitationIn,Events,Conditions,WindDirDegrees,DateUTC
12:54 AM,50.0,48.0,93,30.05,8.0,Calm,Calm,-,N/A,,Clear,0,2012-11-06 06:54:00
1:54 AM,54.0,46.9,77,30.06,10.0,Variable,4.6,-,N/A,,Clear,0,2012-11-06 07:54:00
2:54 AM,54.0,46.9,77,30.07,10.0,Variable,3.5,-,N/A,,Clear,0,2012-11-06 08:54:00
3:54 AM,52.0,46.9,83,30.08,10.0,Calm,Calm,-,N/A,,Clear,0,2012-11-06 09:54:00
4:54 AM,50.0,46.0,86,30.10,10.0,Calm,Calm,-,N/A,,Clear,0,2012-11-06 10:54:00
5:54 AM,48.9,45.0,86,30.12,10.0,North,3.5,-,N/A,,Clear,350,2012-11-06 11:54:00
6:54 AM,48.0,44.1,86,30.14,10.0,Calm,Calm,-,N/A,,Clear,0,2012-11-06 12:54:00
7:54 AM,52.0,44.1,74,30.17,10.0,NNW,4.6,-,N/A,,Clear,340,2012-11-06 13:54:00
8:54 AM,55.0,45.0,69,30.17,10.0,Variable,3.5,-,N/A,,Clear,0,2012-11-06 14:54:00
9:54 AM,59.0,46.0,62,30.17,10.0,Variable,4.6,-,N/A,,Clear,0,2012-11-06 15:54:00
10:54 AM,61.0,48.0,62,30.17,10.0,Variable,3.5,-,N/A,,Scattered Clouds,0,2012-11-06 16:54:00
11:54 AM,64.0,46.9,54,30.15,10.0,Variable,6.9,-,N/A,,Partly Cloudy,0,2012-11-06 17:54:00
12:54 PM,63.0,45.0,52,30.13,10.0,NNW,6.9,-,N/A,,Clear,340,2012-11-06 18:54:00
1:54 PM,64.9,46.0,50,30.12,10.0,Variable,5.8,-,N/A,,Clear,0,2012-11-06 19:54:00
2:54 PM,64.9,45.0,48,30.11,10.0,Variable,3.5,-,N/A,,Clear,0,2012-11-06 20:54:00
3:54 PM,66.0,46.0,48,30.10,10.0,Calm,Calm,-,N/A,,Clear,0,2012-11-06 21:54:00
4:54 PM,60.1,48.9,67,30.11,10.0,Calm,Calm,-,N/A,,Clear,0,2012-11-06 22:54:00
5:54 PM,54.0,48.9,83,30.12,10.0,Calm,Calm,-,N/A,,Clear,0,2012-11-06 23:54:00
6:54 PM,52.0,48.9,89,30.14,10.0,Calm,Calm,-,N/A,,Clear,0,2012-11-07 00:54:00
7:54 PM,50.0,46.9,89,30.14,10.0,Calm,Calm,-,N/A,,Clear,0,2012-11-07 01:54:00
8:54 PM,48.9,46.0,90,30.15,8.0,Calm,Calm,-,N/A,,Clear,0,2012-11-07 02:54:00
9:54 PM,-9999,-9999,N/A,-9999,8.0,Calm,Calm,-,N/A,,Unknown,0,2012-11-07 03:54:00
10:54 PM,46.9,44.1,90,30.16,8.0,Calm,Calm,-,N/A,,Clear,0,2012-11-07 04:54:00
11:54 PM,46.0,44.1,93,30.16,8.0,Calm,Calm,-,N/A,,Clear,0,2012-11-07 05:54:00